sensor_id;sensor_type;location;lat;lon;timestamp;noise_LAeq;noise_LA_min;noise_LA_max;noise_LA01;noise_LA95
4048;Laerm;2038;51.728;6.674;2023-07-29T00:01:37;41.89;34.69;56.07;;
4048;Laerm;2038;51.728;6.674;2023-07-29T00:04:06;39.66;33.90;42.22;;
4048;Laerm;2038;51.728;6.674;2023-07-29T00:06:32;40.04;35.04;44.27;;
4048;Laerm;2038;51.728;6.674;2023-07-29T00:08:58;40.14;35.31;42.93;;
4048;Laerm;2038;51.728;6.674;2023-07-29T00:11:24;39.91;34.31;42.41;;
4048;Laerm;2038;51.728;6.674;2023-07-29T00:13:50;39.76;34.31;42.29;;
4048;Laerm;2038;51.728;6.674;2023-07-29T00:16:17;39.74;34.69;42.41;;
4048;Laerm;2038;51.728;6.674;2023-07-29T00:18:44;39.67;33.44;41.96;;
4048;Laerm;2038;51.728;6.674;2023-07-29T00:21:10;39.64;34.31;42.16;;
4048;Laerm;2038;51.728;6.674;2023-07-29T00:23:36;39.90;35.04;44.27;;
4048;Laerm;2038;51.728;6.674;2023-07-29T00:26:02;40.53;34.69;49.03;;
4048;Laerm;2038;51.728;6.674;2023-07-29T00:28:29;43.23;35.66;56.99;;
4048;Laerm;2038;51.728;6.674;2023-07-29T00:30:55;40.01;35.36;42.16;;
4048;Laerm;2038;51.728;6.674;2023-07-29T00:33:21;40.26;36.20;42.65;;
4048;Laerm;2038;51.728;6.674;2023-07-29T00:35:48;39.99;35.36;42.41;;
4048;Laerm;2038;51.728;6.674;2023-07-29T00:38:14;39.93;35.04;42.03;;
4048;Laerm;2038;51.728;6.674;2023-07-29T00:40:40;40.07;35.04;45.69;;
4048;Laerm;2038;51.728;6.674;2023-07-29T00:43:07;44.35;35.36;61.50;;
4048;Laerm;2038;51.728;6.674;2023-07-29T00:45:34;40.03;35.04;42.16;;
4048;Laerm;2038;51.728;6.674;2023-07-29T00:48:02;41.20;35.94;53.86;;
4048;Laerm;2038;51.728;6.674;2023-07-29T00:50:30;39.91;35.36;42.16;;
4048;Laerm;2038;51.728;6.674;2023-07-29T00:52:57;39.83;34.69;42.41;;
4048;Laerm;2038;51.728;6.674;2023-07-29T00:55:24;39.89;35.04;42.29;;
4048;Laerm;2038;51.728;6.674;2023-07-29T00:57:51;39.80;34.69;42.00;;
4048;Laerm;2038;51.728;6.674;2023-07-29T01:00:21;39.90;35.36;42.35;;
4048;Laerm;2038;51.728;6.674;2023-07-29T01:02:48;39.93;35.01;41.96;;
4048;Laerm;2038;51.728;6.674;2023-07-29T01:05:17;39.91;35.04;42.16;;
4048;Laerm;2038;51.728;6.674;2023-07-29T01:07:56;39.97;35.36;41.89;;
4048;Laerm;2038;51.728;6.674;2023-07-29T01:11:03;40.04;35.04;42.35;;
4048;Laerm;2038;51.728;6.674;2023-07-29T01:13:53;40.00;36.69;42.16;;
4048;Laerm;2038;51.728;6.674;2023-07-29T01:16:42;39.88;35.04;41.96;;
4048;Laerm;2038;51.728;6.674;2023-07-29T01:19:42;39.97;34.69;42.22;;
4048;Laerm;2038;51.728;6.674;2023-07-29T01:22:11;40.00;35.36;42.16;;
4048;Laerm;2038;51.728;6.674;2023-07-29T01:24:39;42.99;35.36;58.41;;
4048;Laerm;2038;51.728;6.674;2023-07-29T01:27:06;39.87;36.91;42.22;;
4048;Laerm;2038;51.728;6.674;2023-07-29T01:29:32;39.85;36.69;43.05;;
4048;Laerm;2038;51.728;6.674;2023-07-29T01:32:09;40.55;36.69;52.39;;
4048;Laerm;2038;51.728;6.674;2023-07-29T01:37:26;39.77;35.36;42.22;;
4048;Laerm;2038;51.728;6.674;2023-07-29T01:39:56;39.82;34.31;41.89;;
4048;Laerm;2038;51.728;6.674;2023-07-29T01:42:24;40.73;36.69;52.21;;
4048;Laerm;2038;51.728;6.674;2023-07-29T01:44:50;40.01;36.91;42.03;;
4048;Laerm;2038;51.728;6.674;2023-07-29T01:47:17;40.10;37.12;42.47;;
4048;Laerm;2038;51.728;6.674;2023-07-29T01:49:43;39.95;37.12;41.96;;
4048;Laerm;2038;51.728;6.674;2023-07-29T01:52:09;39.88;34.31;42.09;;
4048;Laerm;2038;51.728;6.674;2023-07-29T01:54:36;39.92;34.69;42.35;;
4048;Laerm;2038;51.728;6.674;2023-07-29T01:57:02;39.94;34.31;42.22;;
4048;Laerm;2038;51.728;6.674;2023-07-29T01:59:28;44.25;36.91;59.85;;
4048;Laerm;2038;51.728;6.674;2023-07-29T02:01:54;39.81;36.91;42.22;;
4048;Laerm;2038;51.728;6.674;2023-07-29T02:04:21;39.95;36.91;42.22;;
4048;Laerm;2038;51.728;6.674;2023-07-29T02:06:47;40.01;37.12;42.76;;
4048;Laerm;2038;51.728;6.674;2023-07-29T02:09:13;39.82;36.20;42.42;;
4048;Laerm;2038;51.728;6.674;2023-07-29T02:11:39;39.87;36.69;41.96;;
4048;Laerm;2038;51.728;6.674;2023-07-29T02:14:05;39.74;36.45;41.89;;
4048;Laerm;2038;51.728;6.674;2023-07-29T02:16:32;41.25;36.34;55.75;;
4048;Laerm;2038;51.728;6.674;2023-07-29T02:19:00;39.85;34.69;41.96;;
4048;Laerm;2038;51.728;6.674;2023-07-29T02:21:26;39.74;36.69;42.47;;
4048;Laerm;2038;51.728;6.674;2023-07-29T02:23:52;39.76;35.66;41.96;;
4048;Laerm;2038;51.728;6.674;2023-07-29T02:26:19;41.90;36.69;57.19;;
4048;Laerm;2038;51.728;6.674;2023-07-29T02:28:45;39.89;36.91;41.89;;
4048;Laerm;2038;51.728;6.674;2023-07-29T02:31:21;39.84;36.34;41.96;;
4048;Laerm;2038;51.728;6.674;2023-07-29T02:33:48;43.40;36.20;58.37;;
4048;Laerm;2038;51.728;6.674;2023-07-29T02:36:14;39.83;37.12;42.09;;
4048;Laerm;2038;51.728;6.674;2023-07-29T02:38:42;40.03;36.69;42.22;;
4048;Laerm;2038;51.728;6.674;2023-07-29T02:41:11;39.96;37.12;42.41;;
4048;Laerm;2038;51.728;6.674;2023-07-29T02:43:43;39.97;37.32;42.29;;
4048;Laerm;2038;51.728;6.674;2023-07-29T02:46:09;42.91;36.91;58.74;;
4048;Laerm;2038;51.728;6.674;2023-07-29T02:48:36;40.76;37.12;52.21;;
4048;Laerm;2038;51.728;6.674;2023-07-29T02:51:02;39.86;36.91;42.16;;
4048;Laerm;2038;51.728;6.674;2023-07-29T02:53:28;39.96;37.12;42.24;;
4048;Laerm;2038;51.728;6.674;2023-07-29T02:55:54;40.06;36.91;42.22;;
4048;Laerm;2038;51.728;6.674;2023-07-29T02:58:21;39.98;35.36;42.22;;
4048;Laerm;2038;51.728;6.674;2023-07-29T03:00:47;42.10;34.69;54.89;;
4048;Laerm;2038;51.728;6.674;2023-07-29T03:03:14;46.05;35.04;60.68;;
4048;Laerm;2038;51.728;6.674;2023-07-29T03:05:40;40.00;35.94;41.89;;
4048;Laerm;2038;51.728;6.674;2023-07-29T03:08:07;45.69;37.12;63.54;;
4048;Laerm;2038;51.728;6.674;2023-07-29T03:10:35;48.66;37.88;62.94;;
4048;Laerm;2038;51.728;6.674;2023-07-29T03:13:04;40.93;37.52;62.82;;
4048;Laerm;2038;51.728;6.674;2023-07-29T03:15:31;41.03;36.91;53.03;;
4048;Laerm;2038;51.728;6.674;2023-07-29T03:18:00;40.14;36.91;51.18;;
4048;Laerm;2038;51.728;6.674;2023-07-29T03:20:26;39.78;37.12;41.96;;
4048;Laerm;2038;51.728;6.674;2023-07-29T03:22:52;40.01;36.91;48.26;;
4048;Laerm;2038;51.728;6.674;2023-07-29T03:25:18;39.86;36.91;48.16;;
4048;Laerm;2038;51.728;6.674;2023-07-29T03:27:44;40.08;36.91;45.77;;
4048;Laerm;2038;51.728;6.674;2023-07-29T03:30:11;44.43;36.20;58.97;;
4048;Laerm;2038;51.728;6.674;2023-07-29T03:32:43;42.93;36.91;57.82;;
4048;Laerm;2038;51.728;6.674;2023-07-29T03:35:10;40.28;36.69;53.10;;
4048;Laerm;2038;51.728;6.674;2023-07-29T03:37:37;39.95;37.12;42.98;;
4048;Laerm;2038;51.728;6.674;2023-07-29T03:40:03;43.57;37.12;59.36;;
4048;Laerm;2038;51.728;6.674;2023-07-29T03:42:30;43.06;37.70;61.75;;
4048;Laerm;2038;51.728;6.674;2023-07-29T03:44:56;48.71;37.70;63.98;;
4048;Laerm;2038;51.728;6.674;2023-07-29T03:47:22;42.17;36.45;56.86;;
4048;Laerm;2038;51.728;6.674;2023-07-29T03:49:49;40.92;37.12;48.80;;
4048;Laerm;2038;51.728;6.674;2023-07-29T03:52:15;42.29;37.32;60.14;;
4048;Laerm;2038;51.728;6.674;2023-07-29T03:54:42;40.02;36.20;42.82;;
4048;Laerm;2038;51.728;6.674;2023-07-29T03:57:08;46.63;37.32;62.57;;
4048;Laerm;2038;51.728;6.674;2023-07-29T03:59:34;40.83;37.12;46.45;;
4048;Laerm;2038;51.728;6.674;2023-07-29T04:02:00;42.85;37.32;59.42;;
4048;Laerm;2038;51.728;6.674;2023-07-29T04:04:26;41.24;37.32;57.02;;
4048;Laerm;2038;51.728;6.674;2023-07-29T04:06:53;44.23;37.70;58.86;;
4048;Laerm;2038;51.728;6.674;2023-07-29T04:09:19;40.03;37.12;44.19;;
4048;Laerm;2038;51.728;6.674;2023-07-29T04:11:45;41.24;36.45;52.04;;
4048;Laerm;2038;51.728;6.674;2023-07-29T04:14:11;42.71;37.52;58.14;;
4048;Laerm;2038;51.728;6.674;2023-07-29T04:16:38;45.85;37.12;61.32;;
4048;Laerm;2038;51.728;6.674;2023-07-29T04:19:04;48.47;37.52;76.05;;
4048;Laerm;2038;51.728;6.674;2023-07-29T04:21:30;40.09;37.12;45.31;;
4048;Laerm;2038;51.728;6.674;2023-07-29T04:23:56;42.58;37.12;57.23;;
4048;Laerm;2038;51.728;6.674;2023-07-29T04:26:23;40.60;37.52;48.84;;
4048;Laerm;2038;51.728;6.674;2023-07-29T04:28:49;44.60;37.32;63.73;;
4048;Laerm;2038;51.728;6.674;2023-07-29T04:31:16;44.12;38.81;59.02;;
4048;Laerm;2038;51.728;6.674;2023-07-29T04:33:42;41.09;37.32;54.48;;
4048;Laerm;2038;51.728;6.674;2023-07-29T04:36:08;43.77;37.70;57.62;;
4048;Laerm;2038;51.728;6.674;2023-07-29T04:38:37;42.98;37.52;59.23;;
4048;Laerm;2038;51.728;6.674;2023-07-29T04:41:03;44.64;36.91;62.16;;
4048;Laerm;2038;51.728;6.674;2023-07-29T04:43:33;45.85;37.32;59.61;;
4048;Laerm;2038;51.728;6.674;2023-07-29T04:45:59;40.24;37.32;46.48;;
4048;Laerm;2038;51.728;6.674;2023-07-29T04:48:25;43.54;37.32;58.53;;
4048;Laerm;2038;51.728;6.674;2023-07-29T04:50:52;45.27;38.21;59.15;;
4048;Laerm;2038;51.728;6.674;2023-07-29T04:53:18;49.73;37.12;68.37;;
4048;Laerm;2038;51.728;6.674;2023-07-29T04:55:45;45.19;37.32;60.36;;
4048;Laerm;2038;51.728;6.674;2023-07-29T04:58:11;48.38;36.91;66.05;;
4048;Laerm;2038;51.728;6.674;2023-07-29T05:00:38;46.72;36.69;60.41;;
4048;Laerm;2038;51.728;6.674;2023-07-29T05:03:04;43.79;36.69;56.86;;
4048;Laerm;2038;51.728;6.674;2023-07-29T05:05:30;40.98;37.12;51.74;;
4048;Laerm;2038;51.728;6.674;2023-07-29T05:07:56;41.68;36.91;54.75;;
4048;Laerm;2038;51.728;6.674;2023-07-29T05:10:23;46.12;37.32;60.74;;
4048;Laerm;2038;51.728;6.674;2023-07-29T05:12:49;44.20;36.69;59.51;;
4048;Laerm;2038;51.728;6.674;2023-07-29T05:15:15;49.28;36.45;66.27;;
4048;Laerm;2038;51.728;6.674;2023-07-29T05:17:41;43.14;36.69;58.24;;
4048;Laerm;2038;51.728;6.674;2023-07-29T05:20:08;43.90;36.91;57.72;;
4048;Laerm;2038;51.728;6.674;2023-07-29T05:22:34;44.25;36.91;57.32;;
4048;Laerm;2038;51.728;6.674;2023-07-29T05:25:01;42.15;36.91;55.57;;
4048;Laerm;2038;51.728;6.674;2023-07-29T05:27:27;43.46;36.91;55.59;;
4048;Laerm;2038;51.728;6.674;2023-07-29T05:29:53;44.28;37.12;58.14;;
4048;Laerm;2038;51.728;6.674;2023-07-29T05:32:19;42.86;36.91;59.59;;
4048;Laerm;2038;51.728;6.674;2023-07-29T05:34:45;42.19;36.45;56.41;;
4048;Laerm;2038;51.728;6.674;2023-07-29T05:37:12;43.96;36.91;57.90;;
4048;Laerm;2038;51.728;6.674;2023-07-29T05:39:38;46.21;37.70;57.78;;
4048;Laerm;2038;51.728;6.674;2023-07-29T05:42:05;47.64;37.88;62.78;;
4048;Laerm;2038;51.728;6.674;2023-07-29T05:44:31;41.32;37.35;47.28;;
4048;Laerm;2038;51.728;6.674;2023-07-29T05:46:57;47.08;38.21;59.56;;
4048;Laerm;2038;51.728;6.674;2023-07-29T05:49:24;44.39;36.69;57.62;;
4048;Laerm;2038;51.728;6.674;2023-07-29T05:51:50;46.22;37.52;62.32;;
4048;Laerm;2038;51.728;6.674;2023-07-29T05:54:19;44.19;36.91;55.21;;
4048;Laerm;2038;51.728;6.674;2023-07-29T05:56:45;43.16;36.69;56.47;;
4048;Laerm;2038;51.728;6.674;2023-07-29T05:59:11;46.12;37.12;60.07;;
4048;Laerm;2038;51.728;6.674;2023-07-29T06:01:37;45.88;37.70;58.39;;
4048;Laerm;2038;51.728;6.674;2023-07-29T06:04:04;43.38;37.32;55.32;;
4048;Laerm;2038;51.728;6.674;2023-07-29T06:06:30;41.02;36.69;54.64;;
4048;Laerm;2038;51.728;6.674;2023-07-29T06:08:56;44.12;37.12;60.61;;
4048;Laerm;2038;51.728;6.674;2023-07-29T06:11:22;42.04;37.32;55.46;;
4048;Laerm;2038;51.728;6.674;2023-07-29T06:13:49;44.65;37.32;58.77;;
4048;Laerm;2038;51.728;6.674;2023-07-29T06:16:15;42.17;36.69;55.93;;
4048;Laerm;2038;51.728;6.674;2023-07-29T06:18:41;43.37;37.32;53.05;;
4048;Laerm;2038;51.728;6.674;2023-07-29T06:21:08;45.20;37.12;58.87;;
4048;Laerm;2038;51.728;6.674;2023-07-29T06:23:37;44.53;36.91;58.12;;
4048;Laerm;2038;51.728;6.674;2023-07-29T06:26:04;45.70;37.52;61.82;;
4048;Laerm;2038;51.728;6.674;2023-07-29T06:28:30;45.32;37.32;58.90;;
4048;Laerm;2038;51.728;6.674;2023-07-29T06:30:56;44.51;36.77;55.89;;
4048;Laerm;2038;51.728;6.674;2023-07-29T06:33:22;43.60;37.52;56.65;;
4048;Laerm;2038;51.728;6.674;2023-07-29T06:35:48;44.27;37.32;58.36;;
4048;Laerm;2038;51.728;6.674;2023-07-29T06:38:15;48.37;38.95;65.51;;
4048;Laerm;2038;51.728;6.674;2023-07-29T06:40:45;45.96;38.52;56.80;;
4048;Laerm;2038;51.728;6.674;2023-07-29T06:43:11;47.45;38.37;62.13;;
4048;Laerm;2038;51.728;6.674;2023-07-29T06:45:37;46.88;38.05;62.52;;
4048;Laerm;2038;51.728;6.674;2023-07-29T06:48:04;43.59;37.52;55.34;;
4048;Laerm;2038;51.728;6.674;2023-07-29T06:50:30;52.68;38.21;68.25;;
4048;Laerm;2038;51.728;6.674;2023-07-29T06:52:56;45.93;38.52;58.44;;
4048;Laerm;2038;51.728;6.674;2023-07-29T06:55:22;44.91;36.91;56.47;;
4048;Laerm;2038;51.728;6.674;2023-07-29T06:57:49;45.57;36.45;58.22;;
4048;Laerm;2038;51.728;6.674;2023-07-29T07:00:15;43.84;36.20;58.44;;
4048;Laerm;2038;51.728;6.674;2023-07-29T07:02:42;44.17;36.91;58.36;;
4048;Laerm;2038;51.728;6.674;2023-07-29T07:05:08;43.93;37.12;56.80;;
4048;Laerm;2038;51.728;6.674;2023-07-29T07:07:34;46.26;36.45;58.71;;
4048;Laerm;2038;51.728;6.674;2023-07-29T07:10:01;45.51;35.36;57.73;;
4048;Laerm;2038;51.728;6.674;2023-07-29T07:12:27;47.97;37.32;59.73;;
4048;Laerm;2038;51.728;6.674;2023-07-29T07:14:53;48.20;37.70;59.33;;
4048;Laerm;2038;51.728;6.674;2023-07-29T07:17:19;46.52;38.67;59.55;;
4048;Laerm;2038;51.728;6.674;2023-07-29T07:19:46;45.55;36.91;57.77;;
4048;Laerm;2038;51.728;6.674;2023-07-29T07:22:12;49.45;36.45;66.19;;
4048;Laerm;2038;51.728;6.674;2023-07-29T07:24:38;47.79;38.05;59.97;;
4048;Laerm;2038;51.728;6.674;2023-07-29T07:27:05;45.60;38.05;56.79;;
4048;Laerm;2038;51.728;6.674;2023-07-29T07:29:31;50.51;37.12;68.42;;
4048;Laerm;2038;51.728;6.674;2023-07-29T07:31:58;40.51;36.20;52.88;;
4048;Laerm;2038;51.728;6.674;2023-07-29T07:34:25;48.04;38.67;58.79;;
4048;Laerm;2038;51.728;6.674;2023-07-29T07:36:51;46.10;38.05;57.32;;
4048;Laerm;2038;51.728;6.674;2023-07-29T07:39:17;46.59;37.53;58.65;;
4048;Laerm;2038;51.728;6.674;2023-07-29T07:41:44;51.94;38.37;68.11;;
4048;Laerm;2038;51.728;6.674;2023-07-29T07:44:10;52.82;36.91;66.71;;
4048;Laerm;2038;51.728;6.674;2023-07-29T07:46:38;49.24;37.70;65.61;;
4048;Laerm;2038;51.728;6.674;2023-07-29T07:49:05;45.52;38.37;58.93;;
4048;Laerm;2038;51.728;6.674;2023-07-29T07:51:31;48.03;36.91;62.71;;
4048;Laerm;2038;51.728;6.674;2023-07-29T07:53:57;46.59;35.94;61.20;;
4048;Laerm;2038;51.728;6.674;2023-07-29T07:56:23;47.05;36.69;56.72;;
4048;Laerm;2038;51.728;6.674;2023-07-29T07:58:50;48.10;36.91;59.26;;
4048;Laerm;2038;51.728;6.674;2023-07-29T08:01:16;53.34;37.12;68.40;;
4048;Laerm;2038;51.728;6.674;2023-07-29T08:03:42;49.91;35.04;62.78;;
4048;Laerm;2038;51.728;6.674;2023-07-29T08:06:08;50.27;38.37;62.52;;
4048;Laerm;2038;51.728;6.674;2023-07-29T08:08:35;48.08;39.81;62.46;;
4048;Laerm;2038;51.728;6.674;2023-07-29T08:11:01;47.44;37.70;60.24;;
4048;Laerm;2038;51.728;6.674;2023-07-29T08:13:27;48.09;36.20;58.07;;
4048;Laerm;2038;51.728;6.674;2023-07-29T08:15:54;45.84;37.32;57.54;;
4048;Laerm;2038;51.728;6.674;2023-07-29T08:18:20;48.10;39.92;57.44;;
4048;Laerm;2038;51.728;6.674;2023-07-29T08:20:58;50.81;38.05;67.04;;
4048;Laerm;2038;51.728;6.674;2023-07-29T08:23:27;48.12;39.81;58.71;;
4048;Laerm;2038;51.728;6.674;2023-07-29T08:26:01;46.15;36.69;58.16;;
4048;Laerm;2038;51.728;6.674;2023-07-29T08:28:37;46.09;37.88;62.06;;
4048;Laerm;2038;51.728;6.674;2023-07-29T08:31:04;48.89;37.12;59.92;;
4048;Laerm;2038;51.728;6.674;2023-07-29T08:33:32;45.51;37.88;56.34;;
4048;Laerm;2038;51.728;6.674;2023-07-29T08:36:00;44.41;38.52;58.54;;
4048;Laerm;2038;51.728;6.674;2023-07-29T08:38:26;47.74;37.12;57.52;;
4048;Laerm;2038;51.728;6.674;2023-07-29T08:41:06;49.26;38.37;58.73;;
4048;Laerm;2038;51.728;6.674;2023-07-29T08:43:43;59.39;39.46;76.35;;
4048;Laerm;2038;51.728;6.674;2023-07-29T08:46:11;49.78;36.69;65.37;;
4048;Laerm;2038;51.728;6.674;2023-07-29T08:48:42;47.88;36.69;59.95;;
4048;Laerm;2038;51.728;6.674;2023-07-29T08:51:12;50.84;35.94;66.86;;
4048;Laerm;2038;51.728;6.674;2023-07-29T08:53:39;48.02;38.81;58.24;;
4048;Laerm;2038;51.728;6.674;2023-07-29T08:56:06;48.53;39.92;57.32;;
4048;Laerm;2038;51.728;6.674;2023-07-29T08:58:34;47.82;37.87;60.46;;
4048;Laerm;2038;51.728;6.674;2023-07-29T09:01:01;50.20;39.21;64.22;;
4048;Laerm;2038;51.728;6.674;2023-07-29T09:03:28;49.07;39.92;62.95;;
4048;Laerm;2038;51.728;6.674;2023-07-29T09:05:57;48.31;39.68;58.70;;
4048;Laerm;2038;51.728;6.674;2023-07-29T09:08:26;45.24;37.52;58.90;;
4048;Laerm;2038;51.728;6.674;2023-07-29T09:10:54;50.00;39.46;61.52;;
4048;Laerm;2038;51.728;6.674;2023-07-29T09:13:21;50.60;41.82;62.42;;
4048;Laerm;2038;51.728;6.674;2023-07-29T09:15:48;48.09;38.95;58.85;;
4048;Laerm;2038;51.728;6.674;2023-07-29T09:18:19;53.12;39.99;66.99;;
4048;Laerm;2038;51.728;6.674;2023-07-29T09:20:50;48.96;40.80;57.60;;
4048;Laerm;2038;51.728;6.674;2023-07-29T09:23:17;48.05;38.81;58.95;;
4048;Laerm;2038;51.728;6.674;2023-07-29T09:25:46;48.95;39.92;67.24;;
4048;Laerm;2038;51.728;6.674;2023-07-29T09:28:15;50.44;42.16;58.38;;
4048;Laerm;2038;51.728;6.674;2023-07-29T09:30:45;50.59;40.53;59.98;;
4048;Laerm;2038;51.728;6.674;2023-07-29T09:33:12;50.61;41.03;65.69;;
4048;Laerm;2038;51.728;6.674;2023-07-29T09:35:39;47.53;39.08;59.55;;
4048;Laerm;2038;51.728;6.674;2023-07-29T09:38:06;47.89;39.81;58.62;;
4048;Laerm;2038;51.728;6.674;2023-07-29T09:40:41;49.87;40.03;63.37;;
4048;Laerm;2038;51.728;6.674;2023-07-29T09:43:09;49.49;40.88;63.80;;
4048;Laerm;2038;51.728;6.674;2023-07-29T09:45:37;49.60;42.09;58.43;;
4048;Laerm;2038;51.728;6.674;2023-07-29T09:48:05;49.48;41.06;60.77;;
4048;Laerm;2038;51.728;6.674;2023-07-29T09:50:35;52.87;39.81;70.93;;
4048;Laerm;2038;51.728;6.674;2023-07-29T09:53:03;47.08;39.34;58.49;;
4048;Laerm;2038;51.728;6.674;2023-07-29T09:55:32;51.56;38.81;63.46;;
4048;Laerm;2038;51.728;6.674;2023-07-29T09:58:01;45.92;37.32;57.40;;
4048;Laerm;2038;51.728;6.674;2023-07-29T10:00:31;49.65;38.67;62.18;;
4048;Laerm;2038;51.728;6.674;2023-07-29T10:02:58;49.90;37.52;61.94;;
4048;Laerm;2038;51.728;6.674;2023-07-29T10:05:29;50.39;41.61;65.17;;
4048;Laerm;2038;51.728;6.674;2023-07-29T10:07:56;48.61;37.52;61.64;;
4048;Laerm;2038;51.728;6.674;2023-07-29T10:10:23;50.01;38.95;62.15;;
4048;Laerm;2038;51.728;6.674;2023-07-29T10:12:50;49.42;39.21;60.24;;
4048;Laerm;2038;51.728;6.674;2023-07-29T10:15:18;47.28;38.21;60.73;;
4048;Laerm;2038;51.728;6.674;2023-07-29T10:17:46;47.78;39.08;57.48;;
4048;Laerm;2038;51.728;6.674;2023-07-29T10:20:13;48.19;35.94;64.10;;
4048;Laerm;2038;51.728;6.674;2023-07-29T10:22:42;51.73;38.67;64.90;;
4048;Laerm;2038;51.728;6.674;2023-07-29T10:25:22;49.72;38.52;64.48;;
4048;Laerm;2038;51.728;6.674;2023-07-29T10:28:06;48.00;37.52;57.19;;
4048;Laerm;2038;51.728;6.674;2023-07-29T10:30:33;48.39;37.32;62.96;;
4048;Laerm;2038;51.728;6.674;2023-07-29T10:33:04;47.25;37.52;57.04;;
4048;Laerm;2038;51.728;6.674;2023-07-29T10:35:34;47.55;38.67;60.04;;
4048;Laerm;2038;51.728;6.674;2023-07-29T10:38:02;54.14;38.95;69.25;;
4048;Laerm;2038;51.728;6.674;2023-07-29T10:40:56;47.72;38.37;57.94;;
4048;Laerm;2038;51.728;6.674;2023-07-29T10:43:31;46.63;37.70;58.55;;
4048;Laerm;2038;51.728;6.674;2023-07-29T10:46:15;49.79;41.30;59.40;;
4048;Laerm;2038;51.728;6.674;2023-07-29T10:48:51;50.29;39.70;60.14;;
4048;Laerm;2038;51.728;6.674;2023-07-29T10:51:35;47.87;37.70;60.58;;
4048;Laerm;2038;51.728;6.674;2023-07-29T10:54:15;45.46;36.69;57.81;;
4048;Laerm;2038;51.728;6.674;2023-07-29T10:56:47;47.43;37.88;58.45;;
4048;Laerm;2038;51.728;6.674;2023-07-29T11:12:34;50.20;41.61;59.74;;
4048;Laerm;2038;51.728;6.674;2023-07-29T11:17:48;48.09;37.32;60.93;;
4048;Laerm;2038;51.728;6.674;2023-07-29T11:20:17;48.01;38.95;58.56;;
4048;Laerm;2038;51.728;6.674;2023-07-29T11:22:44;45.65;36.45;59.20;;
4048;Laerm;2038;51.728;6.674;2023-07-29T11:25:14;48.11;36.91;62.08;;
4048;Laerm;2038;51.728;6.674;2023-07-29T11:27:41;48.89;37.70;62.36;;
4048;Laerm;2038;51.728;6.674;2023-07-29T11:30:13;47.52;38.52;59.36;;
4048;Laerm;2038;51.728;6.674;2023-07-29T11:32:42;44.99;38.52;60.17;;
4048;Laerm;2038;51.728;6.674;2023-07-29T11:35:17;48.05;37.32;58.91;;
4048;Laerm;2038;51.728;6.674;2023-07-29T11:37:49;50.40;38.52;65.15;;
4048;Laerm;2038;51.728;6.674;2023-07-29T11:40:19;49.24;39.92;61.98;;
4048;Laerm;2038;51.728;6.674;2023-07-29T11:42:47;50.23;41.14;61.50;;
4048;Laerm;2038;51.728;6.674;2023-07-29T11:45:15;58.76;40.80;78.46;;
4048;Laerm;2038;51.728;6.674;2023-07-29T11:47:41;48.03;37.52;61.49;;
4048;Laerm;2038;51.728;6.674;2023-07-29T11:50:10;48.41;39.34;59.89;;
4048;Laerm;2038;51.728;6.674;2023-07-29T11:52:40;51.77;38.52;69.71;;
4048;Laerm;2038;51.728;6.674;2023-07-29T11:55:07;48.28;38.95;59.92;;
4048;Laerm;2038;51.728;6.674;2023-07-29T11:57:38;47.15;38.21;59.63;;
4048;Laerm;2038;51.728;6.674;2023-07-29T12:00:07;46.60;38.81;57.17;;
4048;Laerm;2038;51.728;6.674;2023-07-29T12:02:42;47.12;39.70;59.96;;
4048;Laerm;2038;51.728;6.674;2023-07-29T12:05:13;48.89;40.13;60.80;;
4048;Laerm;2038;51.728;6.674;2023-07-29T12:07:42;46.73;39.81;57.15;;
4048;Laerm;2038;51.728;6.674;2023-07-29T12:10:09;48.74;39.68;60.95;;
4048;Laerm;2038;51.728;6.674;2023-07-29T12:12:49;48.11;40.23;59.72;;
4048;Laerm;2038;51.728;6.674;2023-07-29T12:15:29;46.99;41.19;58.46;;
4048;Laerm;2038;51.728;6.674;2023-07-29T12:17:57;49.48;36.91;68.94;;
4048;Laerm;2038;51.728;6.674;2023-07-29T12:20:25;45.56;36.45;57.99;;
4048;Laerm;2038;51.728;6.674;2023-07-29T12:22:59;48.56;38.52;61.01;;
4048;Laerm;2038;51.728;6.674;2023-07-29T12:25:31;48.26;37.70;65.19;;
4048;Laerm;2038;51.728;6.674;2023-07-29T12:28:05;46.41;38.81;56.62;;
4048;Laerm;2038;51.728;6.674;2023-07-29T12:30:32;46.78;37.12;58.01;;
4048;Laerm;2038;51.728;6.674;2023-07-29T12:32:59;48.32;39.08;58.76;;
4048;Laerm;2038;51.728;6.674;2023-07-29T12:35:34;47.75;40.23;60.40;;
4048;Laerm;2038;51.728;6.674;2023-07-29T12:38:01;45.52;37.88;59.52;;
4048;Laerm;2038;51.728;6.674;2023-07-29T12:40:27;45.70;37.88;58.33;;
4048;Laerm;2038;51.728;6.674;2023-07-29T12:42:55;50.62;42.22;59.70;;
4048;Laerm;2038;51.728;6.674;2023-07-29T12:45:22;49.14;41.30;57.89;;
4048;Laerm;2038;51.728;6.674;2023-07-29T12:47:53;55.90;37.32;72.12;;
4048;Laerm;2038;51.728;6.674;2023-07-29T12:50:19;52.38;38.95;69.16;;
4048;Laerm;2038;51.728;6.674;2023-07-29T12:52:47;52.25;41.46;65.65;;
4048;Laerm;2038;51.728;6.674;2023-07-29T12:55:13;50.31;40.89;61.10;;
4048;Laerm;2038;51.728;6.674;2023-07-29T12:57:43;48.13;37.32;58.29;;
4048;Laerm;2038;51.728;6.674;2023-07-29T13:00:10;48.69;39.81;59.22;;
4048;Laerm;2038;51.728;6.674;2023-07-29T13:02:38;53.73;39.08;66.69;;
4048;Laerm;2038;51.728;6.674;2023-07-29T13:05:05;46.52;40.71;57.02;;
4048;Laerm;2038;51.728;6.674;2023-07-29T13:07:32;47.31;36.91;60.21;;
4048;Laerm;2038;51.728;6.674;2023-07-29T13:09:58;47.19;39.70;60.00;;
4048;Laerm;2038;51.728;6.674;2023-07-29T13:12:24;46.19;38.52;56.95;;
4048;Laerm;2038;51.728;6.674;2023-07-29T13:14:50;46.40;40.43;56.64;;
4048;Laerm;2038;51.728;6.674;2023-07-29T13:17:17;48.47;39.92;60.10;;
4048;Laerm;2038;51.728;6.674;2023-07-29T13:19:43;47.46;40.43;55.99;;
4048;Laerm;2038;51.728;6.674;2023-07-29T13:22:09;49.79;36.45;61.76;;
4048;Laerm;2038;51.728;6.674;2023-07-29T13:24:35;46.68;37.32;63.55;;
4048;Laerm;2038;51.728;6.674;2023-07-29T13:27:01;50.90;40.80;71.83;;
4048;Laerm;2038;51.728;6.674;2023-07-29T13:29:28;57.50;49.26;76.29;;
4048;Laerm;2038;51.728;6.674;2023-07-29T13:31:54;56.90;42.69;72.79;;
4048;Laerm;2038;51.728;6.674;2023-07-29T13:34:20;49.95;38.81;70.86;;
4048;Laerm;2038;51.728;6.674;2023-07-29T13:36:47;52.38;38.95;72.25;;
4048;Laerm;2038;51.728;6.674;2023-07-29T13:39:13;51.06;39.70;68.81;;
4048;Laerm;2038;51.728;6.674;2023-07-29T13:41:39;53.40;40.23;66.30;;
4048;Laerm;2038;51.728;6.674;2023-07-29T13:44:05;55.53;43.14;77.86;;
4048;Laerm;2038;51.728;6.674;2023-07-29T13:46:32;47.74;42.65;69.87;;
4048;Laerm;2038;51.728;6.674;2023-07-29T13:48:58;51.19;42.65;68.78;;
4048;Laerm;2038;51.728;6.674;2023-07-29T13:51:24;50.94;40.98;63.58;;
4048;Laerm;2038;51.728;6.674;2023-07-29T13:53:50;49.11;38.81;64.89;;
4048;Laerm;2038;51.728;6.674;2023-07-29T13:56:17;49.75;39.34;62.63;;
4048;Laerm;2038;51.728;6.674;2023-07-29T13:58:43;51.59;44.51;69.63;;
4048;Laerm;2038;51.728;6.674;2023-07-29T14:01:09;49.44;40.71;63.53;;
4048;Laerm;2038;51.728;6.674;2023-07-29T14:03:35;53.41;45.14;71.23;;
4048;Laerm;2038;51.728;6.674;2023-07-29T14:06:02;50.56;43.63;66.32;;
4048;Laerm;2038;51.728;6.674;2023-07-29T14:08:28;51.16;43.34;71.40;;
4048;Laerm;2038;51.728;6.674;2023-07-29T14:10:55;51.62;43.68;62.75;;
4048;Laerm;2038;51.728;6.674;2023-07-29T14:13:21;52.44;43.94;64.39;;
4048;Laerm;2038;51.728;6.674;2023-07-29T14:15:47;50.81;41.68;65.21;;
4048;Laerm;2038;51.728;6.674;2023-07-29T14:18:13;49.39;40.53;66.03;;
4048;Laerm;2038;51.728;6.674;2023-07-29T14:20:40;48.66;42.35;61.12;;
4048;Laerm;2038;51.728;6.674;2023-07-29T14:23:06;49.67;43.44;70.81;;
4048;Laerm;2038;51.728;6.674;2023-07-29T14:25:32;54.05;42.09;77.03;;
4048;Laerm;2038;51.728;6.674;2023-07-29T14:27:59;48.31;40.33;62.63;;
4048;Laerm;2038;51.728;6.674;2023-07-29T14:30:25;49.20;39.46;64.74;;
4048;Laerm;2038;51.728;6.674;2023-07-29T14:32:51;44.66;39.21;59.40;;